sensor_id;sensor_type;location;lat;lon;timestamp;P1;durP1;ratioP1;P2;durP2;ratioP2
44842;SDS011;31884;52.538;13.820;2023-03-23T00:01:56;2.00;;;1.13;;
44842;SDS011;31884;52.538;13.820;2023-03-23T00:04:21;1.83;;;1.23;;
44842;SDS011;31884;52.538;13.820;2023-03-23T00:06:47;2.67;;;1.35;;
44842;SDS011;31884;52.538;13.820;2023-03-23T00:09:14;2.38;;;1.52;;
44842;SDS011;31884;52.538;13.820;2023-03-23T00:11:40;1.90;;;0.98;;
44842;SDS011;31884;52.538;13.820;2023-03-23T00:14:07;3.05;;;1.42;;
44842;SDS011;31884;52.538;13.820;2023-03-23T00:16:38;3.42;;;1.23;;
44842;SDS011;31884;52.538;13.820;2023-03-23T00:19:06;3.47;;;1.60;;
44842;SDS011;31884;52.538;13.820;2023-03-23T00:21:37;2.33;;;1.50;;
44842;SDS011;31884;52.538;13.820;2023-03-23T00:24:11;2.15;;;1.25;;
44842;SDS011;31884;52.538;13.820;2023-03-23T00:26:40;2.08;;;1.35;;
44842;SDS011;31884;52.538;13.820;2023-03-23T00:29:10;4.40;;;1.83;;
44842;SDS011;31884;52.538;13.820;2023-03-23T00:31:39;2.20;;;1.52;;
44842;SDS011;31884;52.538;13.820;2023-03-23T00:34:05;2.83;;;1.30;;
44842;SDS011;31884;52.538;13.820;2023-03-23T00:36:31;2.13;;;1.30;;
44842;SDS011;31884;52.538;13.820;2023-03-23T00:38:59;1.60;;;1.17;;
44842;SDS011;31884;52.538;13.820;2023-03-23T00:41:28;2.13;;;1.33;;
44842;SDS011;31884;52.538;13.820;2023-03-23T00:43:55;4.63;;;1.70;;
44842;SDS011;31884;52.538;13.820;2023-03-23T00:46:22;1.92;;;1.30;;
44842;SDS011;31884;52.538;13.820;2023-03-23T00:48:49;1.63;;;1.10;;
44842;SDS011;31884;52.538;13.820;2023-03-23T00:51:15;2.45;;;1.05;;
44842;SDS011;31884;52.538;13.820;2023-03-23T00:53:42;1.73;;;1.20;;
44842;SDS011;31884;52.538;13.820;2023-03-23T00:56:08;1.67;;;1.30;;
44842;SDS011;31884;52.538;13.820;2023-03-23T00:58:34;1.77;;;1.30;;
44842;SDS011;31884;52.538;13.820;2023-03-23T01:01:00;3.70;;;1.35;;
44842;SDS011;31884;52.538;13.820;2023-03-23T01:03:26;1.40;;;1.10;;
44842;SDS011;31884;52.538;13.820;2023-03-23T01:05:53;2.65;;;1.40;;
44842;SDS011;31884;52.538;13.820;2023-03-23T01:08:19;4.25;;;1.20;;
44842;SDS011;31884;52.538;13.820;2023-03-23T01:10:46;2.95;;;1.20;;
44842;SDS011;31884;52.538;13.820;2023-03-23T01:13:12;3.50;;;1.73;;
44842;SDS011;31884;52.538;13.820;2023-03-23T01:15:39;2.80;;;1.70;;
44842;SDS011;31884;52.538;13.820;2023-03-23T01:18:05;2.00;;;1.20;;
44842;SDS011;31884;52.538;13.820;2023-03-23T01:20:30;2.92;;;1.48;;
44842;SDS011;31884;52.538;13.820;2023-03-23T01:23:00;3.28;;;1.52;;
44842;SDS011;31884;52.538;13.820;2023-03-23T01:25:28;2.78;;;1.60;;
44842;SDS011;31884;52.538;13.820;2023-03-23T01:27:55;1.88;;;1.33;;
44842;SDS011;31884;52.538;13.820;2023-03-23T01:30:21;1.95;;;1.40;;
44842;SDS011;31884;52.538;13.820;2023-03-23T01:32:48;2.03;;;1.33;;
44842;SDS011;31884;52.538;13.820;2023-03-23T01:35:14;2.20;;;1.10;;
44842;SDS011;31884;52.538;13.820;2023-03-23T01:37:40;1.65;;;1.20;;
44842;SDS011;31884;52.538;13.820;2023-03-23T01:40:05;2.28;;;1.27;;
44842;SDS011;31884;52.538;13.820;2023-03-23T01:42:35;1.48;;;1.15;;
44842;SDS011;31884;52.538;13.820;2023-03-23T01:45:36;2.65;;;1.30;;
44842;SDS011;31884;52.538;13.820;2023-03-23T01:48:12;2.25;;;1.23;;
44842;SDS011;31884;52.538;13.820;2023-03-23T01:53:38;3.25;;;1.27;;
44842;SDS011;31884;52.538;13.820;2023-03-23T01:56:07;2.30;;;1.30;;
44842;SDS011;31884;52.538;13.820;2023-03-23T01:58:36;2.53;;;1.35;;
44842;SDS011;31884;52.538;13.820;2023-03-23T02:01:04;1.40;;;1.25;;
44842;SDS011;31884;52.538;13.820;2023-03-23T02:03:32;2.33;;;1.40;;
44842;SDS011;31884;52.538;13.820;2023-03-23T02:06:00;2.00;;;1.30;;
44842;SDS011;31884;52.538;13.820;2023-03-23T02:08:27;2.35;;;1.20;;
44842;SDS011;31884;52.538;13.820;2023-03-23T02:10:54;2.13;;;1.20;;
44842;SDS011;31884;52.538;13.820;2023-03-23T02:13:20;2.17;;;1.38;;
44842;SDS011;31884;52.538;13.820;2023-03-23T02:23:53;2.30;;;1.42;;
44842;SDS011;31884;52.538;13.820;2023-03-23T02:26:41;2.22;;;1.40;;
44842;SDS011;31884;52.538;13.820;2023-03-23T02:29:30;2.35;;;1.45;;
44842;SDS011;31884;52.538;13.820;2023-03-23T02:32:22;3.25;;;1.20;;
44842;SDS011;31884;52.538;13.820;2023-03-23T02:35:13;1.90;;;1.20;;
44842;SDS011;31884;52.538;13.820;2023-03-23T02:38:07;5.35;;;1.48;;
44842;SDS011;31884;52.538;13.820;2023-03-23T02:40:39;1.58;;;1.15;;
44842;SDS011;31884;52.538;13.820;2023-03-23T02:43:09;1.40;;;1.30;;
44842;SDS011;31884;52.538;13.820;2023-03-23T02:45:38;2.08;;;1.40;;
44842;SDS011;31884;52.538;13.820;2023-03-23T02:48:06;1.42;;;1.13;;
44842;SDS011;31884;52.538;13.820;2023-03-23T02:50:33;1.77;;;1.25;;
44842;SDS011;31884;52.538;13.820;2023-03-23T02:53:01;2.55;;;1.48;;
44842;SDS011;31884;52.538;13.820;2023-03-23T02:55:31;1.50;;;1.20;;
44842;SDS011;31884;52.538;13.820;2023-03-23T02:57:57;1.50;;;1.40;;
44842;SDS011;31884;52.538;13.820;2023-03-23T03:00:26;2.08;;;1.40;;
44842;SDS011;31884;52.538;13.820;2023-03-23T03:02:53;2.40;;;1.25;;
44842;SDS011;31884;52.538;13.820;2023-03-23T03:08:15;3.60;;;1.50;;
44842;SDS011;31884;52.538;13.820;2023-03-23T03:11:03;3.45;;;1.50;;
44842;SDS011;31884;52.538;13.820;2023-03-23T03:13:39;1.88;;;1.05;;
44842;SDS011;31884;52.538;13.820;2023-03-23T03:16:27;1.25;;;1.05;;
44842;SDS011;31884;52.538;13.820;2023-03-23T03:19:13;1.13;;;0.95;;
44842;SDS011;31884;52.538;13.820;2023-03-23T03:21:44;5.18;;;1.38;;
44842;SDS011;31884;52.538;13.820;2023-03-23T03:24:13;1.80;;;1.30;;
44842;SDS011;31884;52.538;13.820;2023-03-23T03:26:45;4.68;;;1.67;;
44842;SDS011;31884;52.538;13.820;2023-03-23T03:29:12;1.88;;;1.30;;
44842;SDS011;31884;52.538;13.820;2023-03-23T03:31:42;1.60;;;1.23;;
44842;SDS011;31884;52.538;13.820;2023-03-23T03:34:13;1.85;;;1.50;;
44842;SDS011;31884;52.538;13.820;2023-03-23T03:36:42;2.90;;;1.05;;
44842;SDS011;31884;52.538;13.820;2023-03-23T03:39:10;1.60;;;1.10;;
44842;SDS011;31884;52.538;13.820;2023-03-23T03:41:40;2.08;;;1.25;;
44842;SDS011;31884;52.538;13.820;2023-03-23T03:44:06;1.65;;;1.30;;
44842;SDS011;31884;52.538;13.820;2023-03-23T03:46:33;1.58;;;1.10;;
44842;SDS011;31884;52.538;13.820;2023-03-23T03:49:00;2.67;;;1.23;;
44842;SDS011;31884;52.538;13.820;2023-03-23T03:51:27;2.45;;;1.08;;
44842;SDS011;31884;52.538;13.820;2023-03-23T03:53:54;1.48;;;0.90;;
44842;SDS011;31884;52.538;13.820;2023-03-23T03:56:20;1.42;;;1.02;;
44842;SDS011;31884;52.538;13.820;2023-03-23T03:58:47;1.95;;;1.38;;
44842;SDS011;31884;52.538;13.820;2023-03-23T04:01:13;1.58;;;1.10;;
44842;SDS011;31884;52.538;13.820;2023-03-23T04:03:40;1.67;;;1.23;;
44842;SDS011;31884;52.538;13.820;2023-03-23T04:06:06;2.90;;;1.48;;
44842;SDS011;31884;52.538;13.820;2023-03-23T04:08:33;1.08;;;0.80;;
44842;SDS011;31884;52.538;13.820;2023-03-23T04:10:59;2.13;;;1.00;;
44842;SDS011;31884;52.538;13.820;2023-03-23T04:13:24;1.63;;;1.33;;
44842;SDS011;31884;52.538;13.820;2023-03-23T04:15:50;1.73;;;1.20;;
44842;SDS011;31884;52.538;13.820;2023-03-23T04:18:16;1.67;;;1.25;;
44842;SDS011;31884;52.538;13.820;2023-03-23T04:20:43;2.35;;;1.25;;
44842;SDS011;31884;52.538;13.820;2023-03-23T04:23:12;1.17;;;1.00;;
44842;SDS011;31884;52.538;13.820;2023-03-23T04:25:39;3.17;;;1.15;;
44842;SDS011;31884;52.538;13.820;2023-03-23T04:28:07;1.50;;;1.13;;
44842;SDS011;31884;52.538;13.820;2023-03-23T04:30:35;2.28;;;1.35;;
44842;SDS011;31884;52.538;13.820;2023-03-23T04:33:01;2.90;;;1.30;;
44842;SDS011;31884;52.538;13.820;2023-03-23T04:35:27;2.05;;;1.38;;
44842;SDS011;31884;52.538;13.820;2023-03-23T04:37:54;1.75;;;1.33;;
44842;SDS011;31884;52.538;13.820;2023-03-23T04:40:20;1.67;;;1.25;;
44842;SDS011;31884;52.538;13.820;2023-03-23T04:42:46;2.90;;;1.88;;
44842;SDS011;31884;52.538;13.820;2023-03-23T04:45:14;3.83;;;1.95;;
44842;SDS011;31884;52.538;13.820;2023-03-23T04:47:47;4.18;;;2.38;;
44842;SDS011;31884;52.538;13.820;2023-03-23T04:50:19;3.60;;;2.40;;
44842;SDS011;31884;52.538;13.820;2023-03-23T04:52:48;2.72;;;1.85;;
44842;SDS011;31884;52.538;13.820;2023-03-23T04:55:16;2.17;;;1.92;;
44842;SDS011;31884;52.538;13.820;2023-03-23T04:57:42;2.75;;;1.52;;
44842;SDS011;31884;52.538;13.820;2023-03-23T05:00:09;4.93;;;1.90;;
44842;SDS011;31884;52.538;13.820;2023-03-23T05:02:40;1.67;;;1.48;;
44842;SDS011;31884;52.538;13.820;2023-03-23T05:05:07;2.30;;;1.80;;
44842;SDS011;31884;52.538;13.820;2023-03-23T05:07:36;2.10;;;1.30;;
44842;SDS011;31884;52.538;13.820;2023-03-23T05:10:02;2.38;;;1.20;;
44842;SDS011;31884;52.538;13.820;2023-03-23T05:12:29;3.85;;;1.40;;
44842;SDS011;31884;52.538;13.820;2023-03-23T05:14:54;2.22;;;1.55;;
44842;SDS011;31884;52.538;13.820;2023-03-23T05:17:20;1.67;;;1.20;;
44842;SDS011;31884;52.538;13.820;2023-03-23T05:19:48;1.40;;;1.30;;
44842;SDS011;31884;52.538;13.820;2023-03-23T05:22:18;3.97;;;1.42;;
44842;SDS011;31884;52.538;13.820;2023-03-23T05:24:45;3.38;;;1.30;;
44842;SDS011;31884;52.538;13.820;2023-03-23T05:27:11;1.63;;;1.25;;
44842;SDS011;31884;52.538;13.820;2023-03-23T05:29:37;2.05;;;1.20;;
44842;SDS011;31884;52.538;13.820;2023-03-23T05:32:05;1.33;;;1.20;;
44842;SDS011;31884;52.538;13.820;2023-03-23T05:34:32;3.63;;;1.50;;
44842;SDS011;31884;52.538;13.820;2023-03-23T05:36:59;2.15;;;1.60;;
44842;SDS011;31884;52.538;13.820;2023-03-23T05:39:26;2.75;;;1.60;;
44842;SDS011;31884;52.538;13.820;2023-03-23T05:41:53;4.20;;;1.60;;
44842;SDS011;31884;52.538;13.820;2023-03-23T05:44:19;2.53;;;1.70;;
44842;SDS011;31884;52.538;13.820;2023-03-23T05:46:45;2.03;;;1.40;;
44842;SDS011;31884;52.538;13.820;2023-03-23T05:49:11;1.95;;;1.50;;
44842;SDS011;31884;52.538;13.820;2023-03-23T05:51:37;3.70;;;1.60;;
44842;SDS011;31884;52.538;13.820;2023-03-23T05:54:03;3.17;;;1.73;;
44842;SDS011;31884;52.538;13.820;2023-03-23T05:56:28;4.30;;;1.52;;
44842;SDS011;31884;52.538;13.820;2023-03-23T05:58:55;2.10;;;1.48;;
44842;SDS011;31884;52.538;13.820;2023-03-23T06:01:21;1.45;;;1.35;;
44842;SDS011;31884;52.538;13.820;2023-03-23T06:03:48;4.13;;;1.60;;
44842;SDS011;31884;52.538;13.820;2023-03-23T06:06:16;2.05;;;1.25;;
44842;SDS011;31884;52.538;13.820;2023-03-23T06:08:42;3.28;;;1.60;;
44842;SDS011;31884;52.538;13.820;2023-03-23T06:11:08;4.10;;;1.67;;
44842;SDS011;31884;52.538;13.820;2023-03-23T06:13:33;3.28;;;1.83;;
44842;SDS011;31884;52.538;13.820;2023-03-23T06:15:59;4.30;;;2.05;;
44842;SDS011;31884;52.538;13.820;2023-03-23T06:18:24;5.35;;;1.63;;
44842;SDS011;31884;52.538;13.820;2023-03-23T06:20:51;3.60;;;1.92;;
44842;SDS011;31884;52.538;13.820;2023-03-23T06:23:17;2.10;;;1.88;;
44842;SDS011;31884;52.538;13.820;2023-03-23T06:25:43;2.55;;;1.67;;
44842;SDS011;31884;52.538;13.820;2023-03-23T06:28:09;2.33;;;1.52;;
44842;SDS011;31884;52.538;13.820;2023-03-23T06:30:36;4.97;;;1.98;;
44842;SDS011;31884;52.538;13.820;2023-03-23T06:33:02;3.88;;;1.95;;
44842;SDS011;31884;52.538;13.820;2023-03-23T06:35:30;3.75;;;1.80;;
44842;SDS011;31884;52.538;13.820;2023-03-23T06:37:56;7.47;;;1.92;;
44842;SDS011;31884;52.538;13.820;2023-03-23T06:40:26;2.08;;;1.40;;
44842;SDS011;31884;52.538;13.820;2023-03-23T06:42:52;3.95;;;1.95;;
44842;SDS011;31884;52.538;13.820;2023-03-23T06:45:18;2.70;;;1.83;;
44842;SDS011;31884;52.538;13.820;2023-03-23T06:47:44;2.83;;;1.25;;
44842;SDS011;31884;52.538;13.820;2023-03-23T06:50:10;2.00;;;1.38;;
44842;SDS011;31884;52.538;13.820;2023-03-23T06:52:36;2.55;;;1.52;;
44842;SDS011;31884;52.538;13.820;2023-03-23T06:55:01;4.25;;;1.63;;
44842;SDS011;31884;52.538;13.820;2023-03-23T06:57:27;2.95;;;1.67;;
44842;SDS011;31884;52.538;13.820;2023-03-23T06:59:52;2.08;;;1.45;;
44842;SDS011;31884;52.538;13.820;2023-03-23T07:02:18;2.00;;;1.15;;
44842;SDS011;31884;52.538;13.820;2023-03-23T07:04:43;5.72;;;1.52;;
44842;SDS011;31884;52.538;13.820;2023-03-23T07:07:10;2.28;;;1.23;;
44842;SDS011;31884;52.538;13.820;2023-03-23T07:09:39;2.58;;;1.27;;
44842;SDS011;31884;52.538;13.820;2023-03-23T07:12:05;3.92;;;1.17;;
44842;SDS011;31884;52.538;13.820;2023-03-23T07:14:30;1.70;;;1.15;;
44842;SDS011;31884;52.538;13.820;2023-03-23T07:16:56;2.35;;;1.40;;
44842;SDS011;31884;52.538;13.820;2023-03-23T07:19:21;3.95;;;1.55;;
44842;SDS011;31884;52.538;13.820;2023-03-23T07:21:47;3.83;;;1.77;;
44842;SDS011;31884;52.538;13.820;2023-03-23T07:24:12;2.17;;;1.50;;
44842;SDS011;31884;52.538;13.820;2023-03-23T07:26:41;5.88;;;1.92;;
44842;SDS011;31884;52.538;13.820;2023-03-23T07:29:07;16.52;;;8.98;;
44842;SDS011;31884;52.538;13.820;2023-03-23T07:31:33;10.68;;;5.90;;
44842;SDS011;31884;52.538;13.820;2023-03-23T07:33:59;8.93;;;5.00;;
44842;SDS011;31884;52.538;13.820;2023-03-23T07:36:26;5.13;;;3.33;;
44842;SDS011;31884;52.538;13.820;2023-03-23T07:38:51;8.80;;;3.10;;
44842;SDS011;31884;52.538;13.820;2023-03-23T07:41:17;2.75;;;2.25;;
44842;SDS011;31884;52.538;13.820;2023-03-23T07:43:43;3.97;;;2.40;;
44842;SDS011;31884;52.538;13.820;2023-03-23T07:46:08;2.17;;;1.73;;
44842;SDS011;31884;52.538;13.820;2023-03-23T07:48:34;4.80;;;1.90;;
44842;SDS011;31884;52.538;13.820;2023-03-23T07:50:59;3.65;;;1.95;;
44842;SDS011;31884;52.538;13.820;2023-03-23T07:53:25;5.97;;;3.17;;
44842;SDS011;31884;52.538;13.820;2023-03-23T07:55:50;5.47;;;2.63;;
44842;SDS011;31884;52.538;13.820;2023-03-23T07:58:17;15.90;;;5.28;;
44842;SDS011;31884;52.538;13.820;2023-03-23T08:00:44;18.85;;;7.72;;
44842;SDS011;31884;52.538;13.820;2023-03-23T08:03:11;20.73;;;7.53;;
44842;SDS011;31884;52.538;13.820;2023-03-23T08:05:37;11.35;;;5.43;;
44842;SDS011;31884;52.538;13.820;2023-03-23T08:08:02;12.73;;;4.93;;
44842;SDS011;31884;52.538;13.820;2023-03-23T08:10:28;15.10;;;6.03;;
44842;SDS011;31884;52.538;13.820;2023-03-23T08:12:55;13.80;;;5.50;;
44842;SDS011;31884;52.538;13.820;2023-03-23T08:15:21;13.80;;;6.00;;
44842;SDS011;31884;52.538;13.820;2023-03-23T08:17:48;13.50;;;4.80;;
44842;SDS011;31884;52.538;13.820;2023-03-23T08:20:15;12.20;;;5.72;;
44842;SDS011;31884;52.538;13.820;2023-03-23T08:22:43;11.77;;;5.60;;
44842;SDS011;31884;52.538;13.820;2023-03-23T08:25:12;13.20;;;5.85;;
44842;SDS011;31884;52.538;13.820;2023-03-23T08:27:39;17.75;;;8.90;;
44842;SDS011;31884;52.538;13.820;2023-03-23T08:30:09;4.90;;;3.30;;
44842;SDS011;31884;52.538;13.820;2023-03-23T08:32:37;5.07;;;2.95;;
44842;SDS011;31884;52.538;13.820;2023-03-23T08:35:03;4.10;;;2.30;;
44842;SDS011;31884;52.538;13.820;2023-03-23T08:37:29;5.90;;;4.53;;
44842;SDS011;31884;52.538;13.820;2023-03-23T08:39:55;4.07;;;2.78;;
44842;SDS011;31884;52.538;13.820;2023-03-23T08:42:24;6.05;;;2.45;;
44842;SDS011;31884;52.538;13.820;2023-03-23T08:44:51;3.17;;;2.03;;
44842;SDS011;31884;52.538;13.820;2023-03-23T08:47:16;3.20;;;1.83;;
44842;SDS011;31884;52.538;13.820;2023-03-23T08:49:42;2.92;;;2.00;;
44842;SDS011;31884;52.538;13.820;2023-03-23T08:52:09;2.60;;;1.77;;
44842;SDS011;31884;52.538;13.820;2023-03-23T08:54:34;4.80;;;2.70;;
44842;SDS011;31884;52.538;13.820;2023-03-23T08:57:00;4.38;;;2.67;;
44842;SDS011;31884;52.538;13.820;2023-03-23T08:59:27;3.45;;;2.47;;
44842;SDS011;31884;52.538;13.820;2023-03-23T09:01:53;2.97;;;2.08;;
44842;SDS011;31884;52.538;13.820;2023-03-23T09:04:18;3.65;;;2.70;;
44842;SDS011;31884;52.538;13.820;2023-03-23T09:06:44;4.82;;;3.33;;
44842;SDS011;31884;52.538;13.820;2023-03-23T09:09:10;3.95;;;3.20;;
44842;SDS011;31884;52.538;13.820;2023-03-23T09:11:37;3.33;;;2.60;;
44842;SDS011;31884;52.538;13.820;2023-03-23T09:14:03;5.50;;;3.60;;
44842;SDS011;31884;52.538;13.820;2023-03-23T09:16:31;4.47;;;2.33;;
44842;SDS011;31884;52.538;13.820;2023-03-23T09:18:57;1.85;;;1.73;;
44842;SDS011;31884;52.538;13.820;2023-03-23T09:21:24;2.33;;;1.70;;
44842;SDS011;31884;52.538;13.820;2023-03-23T09:23:50;5.28;;;3.55;;
44842;SDS011;31884;52.538;13.820;2023-03-23T09:26:16;4.32;;;2.30;;
44842;SDS011;31884;52.538;13.820;2023-03-23T09:28:42;4.80;;;2.08;;
44842;SDS011;31884;52.538;13.820;2023-03-23T09:31:09;3.85;;;2.00;;
44842;SDS011;31884;52.538;13.820;2023-03-23T09:33:36;2.65;;;2.00;;
44842;SDS011;31884;52.538;13.820;2023-03-23T09:36:02;4.15;;;3.00;;
44842;SDS011;31884;52.538;13.820;2023-03-23T09:38:29;2.33;;;1.67;;
44842;SDS011;31884;52.538;13.820;2023-03-23T09:41:19;4.63;;;2.60;;
44842;SDS011;31884;52.538;13.820;2023-03-23T09:44:06;3.08;;;2.03;;
44842;SDS011;31884;52.538;13.820;2023-03-23T09:49:32;3.85;;;2.17;;
44842;SDS011;31884;52.538;13.820;2023-03-23T09:52:12;4.93;;;3.22;;
44842;SDS011;31884;52.538;13.820;2023-03-23T09:54:40;3.13;;;2.22;;
44842;SDS011;31884;52.538;13.820;2023-03-23T09:57:12;5.75;;;3.40;;
44842;SDS011;31884;52.538;13.820;2023-03-23T10:00:26;4.75;;;3.22;;
44842;SDS011;31884;52.538;13.820;2023-03-23T10:05:40;4.00;;;2.42;;
44842;SDS011;31884;52.538;13.820;2023-03-23T10:08:30;2.08;;;1.60;;
44842;SDS011;31884;52.538;13.820;2023-03-23T10:21:24;1.73;;;1.20;;
44842;SDS011;31884;52.538;13.820;2023-03-23T10:24:04;1.88;;;1.15;;
44842;SDS011;31884;52.538;13.820;2023-03-23T10:29:49;3.15;;;1.27;;
44842;SDS011;31884;52.538;13.820;2023-03-23T10:32:39;1.92;;;1.30;;
44842;SDS011;31884;52.538;13.820;2023-03-23T10:35:13;2.53;;;1.00;;
44842;SDS011;31884;52.538;13.820;2023-03-23T10:37:50;1.55;;;1.02;;
44842;SDS011;31884;52.538;13.820;2023-03-23T10:40:21;2.15;;;0.95;;
44842;SDS011;31884;52.538;13.820;2023-03-23T10:42:51;1.85;;;1.23;;
44842;SDS011;31884;52.538;13.820;2023-03-23T10:47:51;2.92;;;1.13;;
44842;SDS011;31884;52.538;13.820;2023-03-23T10:50:22;1.98;;;1.35;;
44842;SDS011;31884;52.538;13.820;2023-03-23T10:52:51;1.75;;;1.23;;
44842;SDS011;31884;52.538;13.820;2023-03-23T10:55:19;1.77;;;1.00;;
44842;SDS011;31884;52.538;13.820;2023-03-23T10:58:00;3.05;;;1.13;;
44842;SDS011;31884;52.538;13.820;2023-03-23T11:00:28;1.10;;;0.90;;
44842;SDS011;31884;52.538;13.820;2023-03-23T11:02:58;1.75;;;1.25;;
44842;SDS011;31884;52.538;13.820;2023-03-23T11:05:26;1.55;;;1.17;;
44842;SDS011;31884;52.538;13.820;2023-03-23T11:07:59;1.17;;;1.08;;
44842;SDS011;31884;52.538;13.820;2023-03-23T11:11:28;1.20;;;0.90;;
44842;SDS011;31884;52.538;13.820;2023-03-23T11:13:26;2.00;;;1.20;;
44842;SDS011;31884;52.538;13.820;2023-03-23T11:15:54;3.42;;;1.15;;
44842;SDS011;31884;52.538;13.820;2023-03-23T11:18:21;2.05;;;1.00;;
44842;SDS011;31884;52.538;13.820;2023-03-23T11:20:50;1.23;;;0.90;;
44842;SDS011;31884;52.538;13.820;2023-03-23T11:23:23;1.00;;;0.80;;
44842;SDS011;31884;52.538;13.820;2023-03-23T11:26:07;1.15;;;0.98;;
44842;SDS011;31884;52.538;13.820;2023-03-23T11:31:23;1.42;;;1.00;;
44842;SDS011;31884;52.538;13.820;2023-03-23T11:33:55;3.75;;;1.20;;
44842;SDS011;31884;52.538;13.820;2023-03-23T11:36:35;1.63;;;1.10;;
44842;SDS011;31884;52.538;13.820;2023-03-23T11:39:03;1.60;;;0.70;;
44842;SDS011;31884;52.538;13.820;2023-03-23T11:41:49;2.92;;;1.52;;
44842;SDS011;31884;52.538;13.820;2023-03-23T11:44:14;2.90;;;1.40;;
44842;SDS011;31884;52.538;13.820;2023-03-23T11:49:33;1.38;;;1.05;;
44842;SDS011;31884;52.538;13.820;2023-03-23T11:55:11;2.05;;;1.15;;
44842;SDS011;31884;52.538;13.820;2023-03-23T11:57:47;2.70;;;0.88;;
44842;SDS011;31884;52.538;13.820;2023-03-23T12:00:17;3.03;;;1.27;;
44842;SDS011;31884;52.538;13.820;2023-03-23T12:08:15;1.40;;;0.95;;
44842;SDS011;31884;52.538;13.820;2023-03-23T12:11:01;4.43;;;1.55;;
44842;SDS011;31884;52.538;13.820;2023-03-23T12:19:14;1.73;;;1.10;;
44842;SDS011;31884;52.538;13.820;2023-03-23T12:22:09;1.48;;;0.80;;
44842;SDS011;31884;52.538;13.820;2023-03-23T12:25:01;1.38;;;1.00;;
44842;SDS011;31884;52.538;13.820;2023-03-23T12:30:32;1.30;;;1.10;;
44842;SDS011;31884;52.538;13.820;2023-03-23T12:33:17;2.15;;;1.00;;
44842;SDS011;31884;52.538;13.820;2023-03-23T12:36:02;1.13;;;1.00;;
44842;SDS011;31884;52.538;13.820;2023-03-23T12:41:27;1.42;;;1.33;;
44842;SDS011;31884;52.538;13.820;2023-03-23T12:43:59;3.83;;;1.17;;
44842;SDS011;31884;52.538;13.820;2023-03-23T12:49:22;3.08;;;1.02;;
44842;SDS011;31884;52.538;13.820;2023-03-23T12:52:10;1.17;;;0.93;;
44842;SDS011;31884;52.538;13.820;2023-03-23T12:54:52;2.65;;;1.25;;
44842;SDS011;31884;52.538;13.820;2023-03-23T13:00:02;2.10;;;1.27;;
44842;SDS011;31884;52.538;13.820;2023-03-23T13:02:44;2.45;;;1.55;;
44842;SDS011;31884;52.538;13.820;2023-03-23T13:07:49;2.08;;;1.08;;
44842;SDS011;31884;52.538;13.820;2023-03-23T13:10:28;2.28;;;1.13;;
44842;SDS011;31884;52.538;13.820;2023-03-23T13:12:58;2.58;;;1.25;;
44842;SDS011;31884;52.538;13.820;2023-03-23T13:21:12;1.25;;;0.98;;
44842;SDS011;31884;52.538;13.820;2023-03-23T13:23:45;2.65;;;1.17;;
44842;SDS011;31884;52.538;13.820;2023-03-23T13:26:20;2.20;;;0.93;;
44842;SDS011;31884;52.538;13.820;2023-03-23T13:31:22;1.35;;;1.00;;
44842;SDS011;31884;52.538;13.820;2023-03-23T13:34:38;1.70;;;1.48;;
44842;SDS011;31884;52.538;13.820;2023-03-23T13:39:23;3.83;;;1.10;;
44842;SDS011;31884;52.538;13.820;2023-03-23T13:42:47;2.65;;;1.30;;
44842;SDS011;31884;52.538;13.820;2023-03-23T13:46:05;2.33;;;1.35;;
44842;SDS011;31884;52.538;13.820;2023-03-23T13:48:05;1.50;;;1.10;;
44842;SDS011;31884;52.538;13.820;2023-03-23T13:50:43;1.80;;;1.23;;
44842;SDS011;31884;52.538;13.820;2023-03-23T13:53:22;2.88;;;0.90;;
44842;SDS011;31884;52.538;13.820;2023-03-23T13:55:52;1.45;;;1.17;;
44842;SDS011;31884;52.538;13.820;2023-03-23T13:58:30;3.05;;;1.15;;
44842;SDS011;31884;52.538;13.820;2023-03-23T14:01:11;2.67;;;1.00;;
44842;SDS011;31884;52.538;13.820;2023-03-23T14:03:41;3.45;;;1.40;;
44842;SDS011;31884;52.538;13.820;2023-03-23T14:06:14;1.77;;;1.27;;
44842;SDS011;31884;52.538;13.820;2023-03-23T14:08:45;1.77;;;1.00;;
44842;SDS011;31884;52.538;13.820;2023-03-23T14:11:19;1.55;;;1.10;;
44842;SDS011;31884;52.538;13.820;2023-03-23T14:14:05;1.70;;;1.00;;
44842;SDS011;31884;52.538;13.820;2023-03-23T14:19:03;3.72;;;1.40;;
44842;SDS011;31884;52.538;13.820;2023-03-23T14:21:39;1.95;;;1.23;;
44842;SDS011;31884;52.538;13.820;2023-03-23T14:24:10;3.78;;;1.38;;
44842;SDS011;31884;52.538;13.820;2023-03-23T14:26:40;2.35;;;1.17;;
44842;SDS011;31884;52.538;13.820;2023-03-23T14:29:09;2.95;;;1.20;;
44842;SDS011;31884;52.538;13.820;2023-03-23T14:31:35;1.10;;;1.00;;
44842;SDS011;31884;52.538;13.820;2023-03-23T14:34:03;4.40;;;1.27;;
44842;SDS011;31884;52.538;13.820;2023-03-23T14:36:36;2.50;;;0.95;;
44842;SDS011;31884;52.538;13.820;2023-03-23T14:39:04;4.82;;;1.25;;
44842;SDS011;31884;52.538;13.820;2023-03-23T14:41:50;2.88;;;1.08;;
44842;SDS011;31884;52.538;13.820;2023-03-23T14:44:20;1.85;;;0.80;;
44842;SDS011;31884;52.538;13.820;2023-03-23T14:47:00;3.03;;;1.10;;
44842;SDS011;31884;52.538;13.820;2023-03-23T14:49:33;2.25;;;1.08;;
44842;SDS011;31884;52.538;13.820;2023-03-23T14:52:03;1.95;;;1.35;;
44842;SDS011;31884;52.538;13.820;2023-03-23T14:54:34;2.88;;;1.20;;
44842;SDS011;31884;52.538;13.820;2023-03-23T14:57:03;2.60;;;1.25;;
44842;SDS011;31884;52.538;13.820;2023-03-23T14:59:42;2.33;;;1.20;;
44842;SDS011;31884;52.538;13.820;2023-03-23T15:02:10;2.58;;;1.20;;
44842;SDS011;31884;52.538;13.820;2023-03-23T15:07:35;1.25;;;0.95;;
44842;SDS011;31884;52.538;13.820;2023-03-23T15:10:05;1.10;;;0.95;;
44842;SDS011;31884;52.538;13.820;2023-03-23T15:12:32;2.30;;;1.10;;
44842;SDS011;31884;52.538;13.820;2023-03-23T15:15:01;1.67;;;1.20;;
44842;SDS011;31884;52.538;13.820;2023-03-23T15:17:30;1.98;;;1.23;;
44842;SDS011;31884;52.538;13.820;2023-03-23T15:20:00;4.53;;;1.30;;
44842;SDS011;31884;52.538;13.820;2023-03-23T15:22:34;2.38;;;1.30;;
44842;SDS011;31884;52.538;13.820;2023-03-23T15:25:18;2.63;;;1.20;;
44842;SDS011;31884;52.538;13.820;2023-03-23T15:27:57;2.50;;;1.30;;
44842;SDS011;31884;52.538;13.820;2023-03-23T15:30:45;3.35;;;1.33;;
44842;SDS011;31884;52.538;13.820;2023-03-23T15:33:15;3.08;;;1.42;;
44842;SDS011;31884;52.538;13.820;2023-03-23T15:35:45;2.22;;;1.48;;
44842;SDS011;31884;52.538;13.820;2023-03-23T15:38:22;3.42;;;1.27;;
44842;SDS011;31884;52.538;13.820;2023-03-23T15:40:50;5.97;;;2.47;;
44842;SDS011;31884;52.538;13.820;2023-03-23T15:45:59;1.73;;;1.27;;
44842;SDS011;31884;52.538;13.820;2023-03-23T15:48:28;1.35;;;1.08;;
44842;SDS011;31884;52.538;13.820;2023-03-23T15:50:55;2.63;;;1.20;;
44842;SDS011;31884;52.538;13.820;2023-03-23T15:53:23;1.55;;;1.30;;
44842;SDS011;31884;52.538;13.820;2023-03-23T15:55:54;2.13;;;1.38;;
44842;SDS011;31884;52.538;13.820;2023-03-23T15:58:20;2.38;;;1.50;;
44842;SDS011;31884;52.538;13.820;2023-03-23T16:00:46;2.42;;;1.60;;
44842;SDS011;31884;52.538;13.820;2023-03-23T16:03:20;4.60;;;1.33;;
44842;SDS011;31884;52.538;13.820;2023-03-23T16:05:51;3.65;;;1.40;;
44842;SDS011;31884;52.538;13.820;2023-03-23T16:08:21;2.30;;;1.40;;
44842;SDS011;31884;52.538;13.820;2023-03-23T16:10:47;2.95;;;1.52;;
44842;SDS011;31884;52.538;13.820;2023-03-23T16:13:14;4.03;;;1.38;;
44842;SDS011;31884;52.538;13.820;2023-03-23T16:15:40;3.50;;;1.67;;
44842;SDS011;31884;52.538;13.820;2023-03-23T16:18:05;2.30;;;1.55;;
44842;SDS011;31884;52.538;13.820;2023-03-23T16:20:31;1.40;;;1.00;;